createdAt,value
2023-03-12T00:01:45.411Z,8.32
2023-03-12T00:04:41.144Z,7.18
2023-03-12T00:07:39.541Z,6.459999999999999
2023-03-12T00:10:38.043Z,5.840000000000001
2023-03-12T00:13:34.658Z,6.000000000000001
2023-03-12T00:16:35.142Z,4.640000000000001
2023-03-12T00:19:30.809Z,5.2
2023-03-12T00:22:26.313Z,5.5600000000000005
2023-03-12T00:25:23.839Z,6.24
2023-03-12T00:28:20.456Z,5.16
2023-03-12T00:31:18.024Z,3.44
2023-03-12T00:34:13.554Z,5.12
2023-03-12T00:37:09.053Z,4.92
2023-03-12T00:40:05.674Z,5.12
2023-03-12T00:43:01.228Z,4.72
2023-03-12T00:45:56.767Z,8.98
2023-03-12T00:48:52.293Z,4.340000000000001
2023-03-12T00:51:47.907Z,5.32
2023-03-12T00:54:43.476Z,3.8400000000000007
2023-03-12T00:57:39.041Z,7.0200000000000005
2023-03-12T01:00:37.612Z,4.9
2023-03-12T01:03:33.102Z,5.760000000000001
2023-03-12T01:06:28.704Z,6.980000000000001
2023-03-12T01:09:24.263Z,7.719999999999999
2023-03-12T01:12:19.803Z,6.039999999999999
2023-03-12T01:15:17.380Z,4.959999999999999
2023-03-12T01:18:12.969Z,4.82
2023-03-12T01:21:08.460Z,4.14
2023-03-12T01:24:06.060Z,5.180000000000001
2023-03-12T01:27:02.659Z,4.0600000000000005
2023-03-12T01:29:59.188Z,2.8600000000000003
2023-03-12T01:32:54.763Z,4.42
2023-03-12T01:35:50.448Z,5.760000000000001
2023-03-12T01:38:47.888Z,3.9200000000000004
2023-03-12T01:41:44.405Z,4
2023-03-12T01:44:51.947Z,4.7
2023-03-12T01:47:47.503Z,4.66
2023-03-12T01:50:43.052Z,6.640000000000001
2023-03-12T01:53:43.624Z,5.4799999999999995
2023-03-12T01:56:41.204Z,4.279999999999999
2023-03-12T01:59:43.731Z,6.5200000000000005
2023-03-12T02:02:41.288Z,5.5
2023-03-12T02:05:44.784Z,5.6
2023-03-12T02:08:43.372Z,4.359999999999999
2023-03-12T02:11:38.905Z,5.44
2023-03-12T02:14:34.462Z,5.14
2023-03-12T02:20:47.541Z,3.8
2023-03-12T02:23:51.125Z,5.279999999999999
2023-03-12T02:26:49.682Z,4.840000000000001
2023-03-12T02:29:46.178Z,4.119999999999999
2023-03-12T02:32:48.862Z,4.68
2023-03-12T02:35:46.300Z,4.9799999999999995
2023-03-12T02:38:52.826Z,4.220000000000001
2023-03-12T02:41:53.417Z,6.82
2023-03-12T02:44:50.933Z,6.8199999999999985
2023-03-12T02:47:46.473Z,5.980000000000001
2023-03-12T02:50:43.086Z,5.18
2023-03-12T02:53:38.624Z,4.46
2023-03-12T02:56:35.177Z,4.7
2023-03-12T02:59:30.738Z,4.220000000000001
2023-03-12T03:02:27.300Z,3.22
2023-03-12T03:05:22.889Z,3.54
2023-03-12T03:08:19.417Z,5.9399999999999995
2023-03-12T03:11:14.972Z,4.5600000000000005
2023-03-12T03:14:10.498Z,5.680000000000001
2023-03-12T03:17:06.251Z,6.4
2023-03-12T03:20:01.669Z,7.08
2023-03-12T03:22:57.213Z,6.62
2023-03-12T03:25:55.811Z,3.9
2023-03-12T03:28:52.294Z,3.7
2023-03-12T03:31:48.848Z,4.58
2023-03-12T03:34:44.450Z,5.96
2023-03-12T03:37:40.061Z,5.82
2023-03-12T03:40:36.590Z,5.06
2023-03-12T03:43:32.122Z,4.82
2023-03-12T03:46:29.814Z,4.8
2023-03-12T03:49:25.273Z,6.860000000000001
2023-03-12T03:52:21.790Z,8.180000000000001
2023-03-12T03:55:17.379Z,6.88
2023-03-12T03:58:12.931Z,4.86
2023-03-12T04:01:08.535Z,6
2023-03-12T04:07:10.606Z,4.359999999999999
2023-03-12T04:10:07.177Z,3.6799999999999997
2023-03-12T04:13:02.750Z,4.18
2023-03-12T04:15:58.316Z,5.66
2023-03-12T04:18:54.855Z,6.8
2023-03-12T04:21:50.372Z,4.54
2023-03-12T04:24:47.081Z,6.3
2023-03-12T04:27:42.544Z,6.659999999999999
2023-03-12T04:30:39.049Z,4.359999999999999
2023-03-12T04:33:36.649Z,6.08
2023-03-12T04:36:32.185Z,4.0200000000000005
2023-03-12T04:39:28.786Z,6.24
2023-03-12T04:42:24.281Z,4.2
2023-03-12T04:45:21.875Z,6.040000000000001
2023-03-12T04:48:17.391Z,7.279999999999999
2023-03-12T04:51:12.989Z,9.34
2023-03-12T04:54:08.565Z,9.680000000000001
2023-03-12T04:57:04.082Z,9.080000000000002
2023-03-12T05:03:05.366Z,4.64
2023-03-12T05:06:01.013Z,5.220000000000001
2023-03-12T05:08:56.410Z,6.68
2023-03-12T05:14:58.400Z,8.040000000000001
2023-03-12T05:17:54.912Z,7
2023-03-12T05:20:56.549Z,8.360000000000001
2023-03-12T05:23:53.104Z,6.3
2023-03-12T05:26:49.626Z,9.2
2023-03-12T05:32:50.879Z,7.6
2023-03-12T05:35:46.305Z,8.5
2023-03-12T05:38:42.875Z,12.239999999999998
2023-03-12T05:41:38.414Z,10.74
2023-03-12T05:44:35.016Z,9.819999999999999
2023-03-12T05:47:30.522Z,10.16
2023-03-12T05:50:26.087Z,9.48
2023-03-12T05:53:21.630Z,9.739999999999998
2023-03-12T05:59:23.774Z,8.56
2023-03-12T06:02:20.363Z,6.959999999999999
2023-03-12T06:05:16.878Z,11.1
2023-03-12T06:08:12.398Z,12.98
2023-03-12T06:11:09.993Z,9.24
2023-03-12T06:14:06.562Z,13.260000000000002
2023-03-12T06:17:02.147Z,15.84
2023-03-12T06:19:57.689Z,11.8
2023-03-12T06:22:53.376Z,9.56
2023-03-12T06:25:48.851Z,10.18
2023-03-12T06:28:45.356Z,9.12
2023-03-12T06:31:42.050Z,9.940000000000001
2023-03-12T06:34:37.486Z,12.620000000000001
2023-03-12T06:37:33.009Z,8.16
2023-03-12T06:40:28.640Z,12.500000000000002
2023-03-12T06:43:24.315Z,21.92
2023-03-12T06:46:22.005Z,14.4
2023-03-12T06:49:18.276Z,9.4
2023-03-12T06:52:13.795Z,7.4
2023-03-12T06:55:10.439Z,10.52
2023-03-12T06:58:05.977Z,4.98
2023-03-12T07:01:03.585Z,6.94
2023-03-12T07:03:59.084Z,4.180000000000001
2023-03-12T07:06:55.620Z,9.66
2023-03-12T07:09:52.169Z,8.18
2023-03-12T07:12:47.782Z,9.36
2023-03-12T07:15:45.354Z,7.8
2023-03-12T07:18:42.910Z,13.760000000000002
2023-03-12T07:21:39.403Z,5.64
2023-03-12T07:24:38.002Z,9.419999999999998
2023-03-12T07:30:41.078Z,10.02
2023-03-12T07:33:37.782Z,9.7
2023-03-12T07:36:35.368Z,7.1
2023-03-12T07:39:30.759Z,5.840000000000001
2023-03-12T07:45:31.900Z,5.46
2023-03-12T07:48:27.421Z,2.78
2023-03-12T07:51:23.949Z,5.08
2023-03-12T07:54:19.524Z,7.4
2023-03-12T07:57:15.179Z,7.720000000000001
2023-03-12T08:03:17.271Z,10.540000000000001
2023-03-12T08:06:12.839Z,9.12
2023-03-12T08:09:10.296Z,10.059999999999999
2023-03-12T08:12:07.009Z,5.24
2023-03-12T08:15:03.419Z,10.459999999999999
2023-03-12T08:17:59.991Z,6.9799999999999995
2023-03-12T08:20:55.520Z,5.360000000000001
2023-03-12T08:23:52.132Z,5.08
2023-03-12T08:26:48.669Z,6.1
2023-03-12T08:29:44.237Z,10.92
2023-03-12T08:32:41.827Z,11.24
2023-03-12T08:35:38.362Z,8.180000000000001
2023-03-12T08:38:33.877Z,7.2
2023-03-12T08:41:30.483Z,6.8
2023-03-12T08:44:26.010Z,5.4
2023-03-12T08:47:21.556Z,7.32
2023-03-12T08:50:17.136Z,10.68
2023-03-12T08:53:12.722Z,8.34
2023-03-12T08:56:08.603Z,4.08
2023-03-12T08:59:03.780Z,5.52
2023-03-12T09:01:59.404Z,4.24
2023-03-12T09:04:54.961Z,7.9
2023-03-12T09:07:50.498Z,5.0600000000000005
2023-03-12T09:10:48.043Z,5.859999999999999
2023-03-12T09:14:09.912Z,7.44
2023-03-12T09:16:45.185Z,4.6
2023-03-12T09:19:40.736Z,5.8
2023-03-12T09:22:37.343Z,6.0200000000000005
2023-03-12T09:25:32.883Z,14.940000000000001
2023-03-12T09:28:28.431Z,6.380000000000001
2023-03-12T09:34:29.490Z,4.88
2023-03-12T09:40:32.654Z,5.459999999999999
2023-03-12T09:43:34.152Z,5
2023-03-12T09:46:34.683Z,3.3199999999999994
2023-03-12T09:49:38.291Z,6.08
2023-03-12T09:52:40.802Z,4.6
2023-03-12T09:55:41.342Z,4.7
2023-03-12T09:58:43.932Z,4.72
2023-03-12T10:01:49.427Z,4.459999999999999
2023-03-12T10:04:59.836Z,4.24
2023-03-12T10:08:17.406Z,4.14
2023-03-12T10:11:19.002Z,4.4
2023-03-12T10:14:27.540Z,6.58
2023-03-12T10:17:39.071Z,6.62
2023-03-12T10:20:51.557Z,4.299999999999999
2023-03-12T10:24:00.131Z,6.4799999999999995
2023-03-12T10:26:58.630Z,10.579999999999998
2023-03-12T10:29:57.245Z,20.56
2023-03-12T10:32:59.787Z,16.860000000000003
2023-03-12T10:35:56.308Z,5.8
2023-03-12T10:38:55.848Z,4.92
2023-03-12T10:41:53.352Z,5.76
2023-03-12T10:44:53.933Z,6.280000000000001
2023-03-12T10:48:00.510Z,4.88
2023-03-12T10:51:02.996Z,14.5
2023-03-12T10:54:05.613Z,5.38
2023-03-12T10:57:01.139Z,5.0600000000000005
2023-03-12T11:00:06.757Z,4.360000000000001
2023-03-12T11:03:06.242Z,4.340000000000001
2023-03-12T11:06:09.837Z,6.62
2023-03-12T11:09:17.137Z,5.08
2023-03-12T11:12:21.820Z,4.68
2023-03-12T11:15:20.412Z,4.279999999999999
2023-03-12T11:18:20.924Z,8.120000000000001
2023-03-12T11:21:18.500Z,7.26
2023-03-12T11:24:16.075Z,6.44
2023-03-12T11:27:25.601Z,23.96
2023-03-12T11:30:24.154Z,6.04
2023-03-12T11:33:20.717Z,10.42
2023-03-12T11:36:28.255Z,6.94
2023-03-12T11:39:33.729Z,10
2023-03-12T11:42:45.268Z,13.98
2023-03-12T11:45:52.787Z,5.08
2023-03-12T11:49:01.406Z,4.1
2023-03-12T11:52:08.860Z,7.88
2023-03-12T11:55:17.387Z,3.94
2023-03-12T11:58:24.974Z,15.34
2023-03-12T12:01:27.496Z,6.279999999999999
2023-03-12T12:04:40.025Z,6.04
2023-03-12T12:07:46.546Z,5.180000000000001
2023-03-12T12:10:53.552Z,4.5200000000000005
2023-03-12T12:14:01.593Z,6.9399999999999995
2023-03-12T12:17:13.110Z,3.88
2023-03-12T12:20:21.679Z,4.459999999999999
2023-03-12T12:23:28.150Z,7.580000000000001
2023-03-12T12:26:36.743Z,3.3400000000000007
2023-03-12T12:29:51.262Z,18.419999999999998
2023-03-12T12:32:59.727Z,13.079999999999998
2023-03-12T12:36:00.383Z,6.18
2023-03-12T12:39:05.847Z,5.640000000000001
2023-03-12T12:42:07.502Z,6.459999999999999
2023-03-12T12:48:18.447Z,4.739999999999999
2023-03-12T12:51:17.002Z,4.360000000000001
2023-03-12T12:57:29.139Z,6.640000000000001
2023-03-12T13:00:36.598Z,3.78
2023-03-12T13:03:33.186Z,6.26
2023-03-12T13:06:37.370Z,5.040000000000001
2023-03-12T13:09:41.268Z,5.86
2023-03-12T13:15:48.684Z,9.7
2023-03-12T13:18:57.188Z,7.5
2023-03-12T13:22:03.691Z,7.0200000000000005
2023-03-12T13:25:09.217Z,7.08
2023-03-12T13:28:21.752Z,5.22
2023-03-12T13:31:31.380Z,8.4
2023-03-12T13:34:30.826Z,4.7
2023-03-12T13:37:45.330Z,5.18
2023-03-12T13:40:50.901Z,5.3
2023-03-12T13:43:49.416Z,4.779999999999999
2023-03-12T13:46:54.924Z,6
2023-03-12T13:49:53.528Z,4.86
2023-03-12T13:53:01.054Z,5.6
2023-03-12T13:56:01.607Z,6.14
2023-03-12T13:59:00.163Z,6.76
2023-03-12T14:02:01.796Z,5.24
2023-03-12T14:08:24.715Z,5.0600000000000005
2023-03-12T14:11:36.285Z,8.72
2023-03-12T14:14:47.816Z,4.98
2023-03-12T14:17:55.303Z,5.860000000000001
2023-03-12T14:20:54.930Z,4.960000000000001
2023-03-12T14:23:54.436Z,7.6
2023-03-12T14:26:53.091Z,5.0200000000000005
2023-03-12T14:29:55.516Z,4.779999999999999
2023-03-12T14:32:55.109Z,5.220000000000001
2023-03-12T14:35:56.680Z,5.98
2023-03-12T14:39:00.192Z,6.9
2023-03-12T14:42:04.724Z,6.319999999999999
2023-03-12T14:45:07.234Z,8.459999999999999
2023-03-12T14:48:11.781Z,4.88
2023-03-12T14:51:15.363Z,6
2023-03-12T14:54:16.948Z,6.119999999999999
2023-03-12T14:57:20.441Z,13.279999999999998
2023-03-12T15:00:24.934Z,4.840000000000001
2023-03-12T15:03:21.524Z,8.059999999999999
2023-03-12T15:06:20.102Z,7.06
2023-03-12T15:09:17.606Z,5.74
2023-03-12T15:12:19.147Z,6.18
2023-03-12T15:15:19.723Z,5.68
2023-03-12T15:18:17.265Z,6.6
2023-03-12T15:21:12.806Z,4.82
2023-03-12T15:24:13.459Z,6.200000000000001
2023-03-12T15:27:17.920Z,9.760000000000002
2023-03-12T15:30:18.516Z,32.84
2023-03-12T15:33:19.021Z,14.280000000000001
2023-03-12T15:36:25.671Z,15.839999999999998
2023-03-12T15:39:26.137Z,22.580000000000002
2023-03-12T15:42:28.757Z,12.940000000000001
2023-03-12T15:45:29.221Z,20.259999999999998
2023-03-12T15:48:28.211Z,14.219999999999999
2023-03-12T15:51:28.284Z,16.86
2023-03-12T15:54:29.831Z,143.78000000000003
2023-03-12T15:57:26.438Z,26.26
2023-03-12T16:00:25.985Z,14.26
2023-03-12T16:03:24.509Z,20.520000000000003
2023-03-12T16:06:23.067Z,15.679999999999998
2023-03-12T16:09:24.728Z,8.22
2023-03-12T16:12:21.175Z,8.24
2023-03-12T16:15:20.742Z,41.48
2023-03-12T16:18:18.337Z,92.84
2023-03-12T16:21:14.853Z,38.17999999999999
2023-03-12T16:24:11.415Z,15.620000000000001
2023-03-12T16:27:14.015Z,27.6
2023-03-12T16:30:13.448Z,18.119999999999997
2023-03-12T16:33:13.035Z,32.02
2023-03-12T16:36:11.593Z,40.54
2023-03-12T16:39:07.106Z,39.480000000000004
2023-03-12T16:42:05.823Z,54.15999999999999
2023-03-12T16:45:04.298Z,69.82000000000001
2023-03-12T16:48:00.837Z,112.94000000000001
2023-03-12T16:50:57.845Z,125.35999999999999
2023-03-12T16:54:05.451Z,89.24000000000001
2023-03-12T17:00:08.047Z,110.82000000000001
2023-03-12T17:03:05.575Z,174.26
2023-03-12T17:06:03.145Z,124
2023-03-12T17:08:59.764Z,91
2023-03-12T17:11:57.729Z,123.32000000000002
2023-03-12T17:14:53.807Z,293.6
2023-03-12T17:17:50.425Z,165.42000000000002
2023-03-12T17:20:47.933Z,140.94
2023-03-12T17:23:45.447Z,115.9
2023-03-12T17:26:43.024Z,156.76
2023-03-12T17:29:39.549Z,136.6
2023-03-12T17:32:35.163Z,159.56
2023-03-12T17:35:35.747Z,152.8
2023-03-12T17:38:32.247Z,169.45999999999998
2023-03-12T17:41:27.759Z,257.08
2023-03-12T17:44:24.372Z,151
2023-03-12T17:47:19.977Z,126.04
2023-03-12T17:50:15.527Z,161.82
2023-03-12T17:53:12.060Z,145.48
2023-03-12T17:56:12.844Z,104.83999999999999
2023-03-12T17:59:08.161Z,88.68
2023-03-12T18:02:04.723Z,122.94000000000001
2023-03-12T18:05:00.403Z,135.64000000000001
2023-03-12T18:07:55.855Z,117.5
2023-03-12T18:10:51.407Z,115.7
2023-03-12T18:13:48.016Z,112.11999999999998
2023-03-12T18:16:43.510Z,116.08
2023-03-12T18:19:39.041Z,110.69999999999997
2023-03-12T18:22:34.664Z,166.07999999999998
2023-03-12T18:25:30.209Z,155.2
2023-03-12T18:28:25.750Z,153.92000000000002
2023-03-12T18:31:22.380Z,144.50000000000003
2023-03-12T18:34:17.884Z,144.44
2023-03-12T18:37:14.421Z,113.52000000000001
2023-03-12T18:40:11.005Z,107.03999999999999
2023-03-12T18:43:06.526Z,110.58
2023-03-12T18:46:02.110Z,126.63999999999999
2023-03-12T18:49:03.705Z,136.45999999999998
2023-03-12T18:51:59.312Z,131.11999999999998
2023-03-12T18:54:54.798Z,126.98000000000002
2023-03-12T19:00:56.866Z,109.16
2023-03-12T19:03:53.513Z,111.47999999999999
2023-03-12T19:06:51.593Z,104.24000000000001
2023-03-12T19:09:47.539Z,90.48
2023-03-12T19:12:52.174Z,85.82000000000001
2023-03-12T19:15:44.725Z,102.16
2023-03-12T19:18:40.254Z,87.1
2023-03-12T19:21:35.804Z,94.4
2023-03-12T19:24:31.414Z,96.88
2023-03-12T19:27:29.150Z,106.38
2023-03-12T19:30:30.475Z,107.47999999999999
2023-03-12T19:33:28.038Z,127.78
2023-03-12T19:36:23.576Z,105.84
2023-03-12T19:39:21.475Z,92.82
2023-03-12T19:42:17.722Z,89.5
2023-03-12T19:45:14.282Z,102.5
2023-03-12T19:48:09.814Z,142.64000000000001
2023-03-12T19:51:06.373Z,121.54
2023-03-12T19:54:01.919Z,121.73999999999998
2023-03-12T19:56:57.448Z,109.1
2023-03-12T19:59:53.054Z,82.48
2023-03-12T20:02:48.810Z,156
2023-03-12T20:05:45.183Z,101.26
2023-03-12T20:08:40.757Z,82.36
2023-03-12T20:11:37.298Z,62.879999999999995
2023-03-12T20:14:32.843Z,47.06
2023-03-12T20:17:28.387Z,48.62
2023-03-12T20:20:23.957Z,50.480000000000004
2023-03-12T20:23:19.563Z,72.82000000000001
2023-03-12T20:26:15.130Z,55.94
2023-03-12T20:29:10.660Z,46.48
2023-03-12T20:32:06.292Z,44.04
2023-03-12T20:35:01.801Z,40.160000000000004
2023-03-12T20:37:59.330Z,34.36
2023-03-12T20:40:54.881Z,33.68
2023-03-12T20:43:54.463Z,35.17999999999999
2023-03-12T20:46:51.031Z,39.14
2023-03-12T20:49:46.588Z,39.980000000000004
2023-03-12T20:52:43.152Z,34.480000000000004
2023-03-12T20:55:39.713Z,28.52
2023-03-12T20:58:35.238Z,25.4
2023-03-12T21:01:31.874Z,21.18
2023-03-12T21:04:28.342Z,18.520000000000003
2023-03-12T21:07:23.955Z,15.14
2023-03-12T21:10:20.507Z,22.240000000000002
2023-03-12T21:13:16.004Z,20.619999999999997
2023-03-12T21:16:11.588Z,20.620000000000005
2023-03-12T21:19:07.178Z,22.020000000000003
2023-03-12T21:22:03.755Z,17.78
2023-03-12T21:24:59.324Z,18.48
2023-03-12T21:27:54.874Z,21.98
2023-03-12T21:30:51.459Z,30.179999999999996
2023-03-12T21:33:46.988Z,28.820000000000004
2023-03-12T21:36:43.568Z,34.52
2023-03-12T21:42:44.654Z,37.12
2023-03-12T21:45:42.223Z,33.04
2023-03-12T21:48:38.847Z,32.44
2023-03-12T21:51:36.791Z,32.21999999999999
2023-03-12T21:54:34.889Z,35.04
2023-03-12T21:57:30.470Z,26.32
2023-03-12T22:00:25.942Z,23.82
2023-03-12T22:03:21.581Z,23.58
2023-03-12T22:06:22.107Z,32.980000000000004
2023-03-12T22:09:19.615Z,34.220000000000006
2023-03-12T22:12:15.209Z,45.72
2023-03-12T22:15:10.780Z,33.12
2023-03-12T22:18:06.314Z,45.88
2023-03-12T22:21:02.901Z,48.839999999999996
2023-03-12T22:24:00.414Z,52.779999999999994
2023-03-12T22:26:56.998Z,39.279999999999994
2023-03-12T22:29:52.583Z,38.779999999999994
2023-03-12T22:32:48.260Z,31.660000000000004
2023-03-12T22:35:45.749Z,25.620000000000005
2023-03-12T22:38:42.270Z,37.96
2023-03-12T22:41:47.755Z,28.660000000000004
2023-03-12T22:44:43.331Z,25.840000000000003
2023-03-12T22:47:38.913Z,27.5
2023-03-12T22:50:34.474Z,23.360000000000003
2023-03-12T22:53:30.040Z,26.1
2023-03-12T22:56:30.620Z,19.78
2023-03-12T22:59:27.118Z,19.48
2023-03-12T23:02:22.640Z,18.6
2023-03-12T23:05:18.239Z,21.26
2023-03-12T23:08:13.832Z,18.839999999999996
2023-03-12T23:11:10.359Z,20.32
2023-03-12T23:14:08.868Z,21.06
2023-03-12T23:17:04.514Z,18.240000000000002
2023-03-12T23:20:04.067Z,18.080000000000002
2023-03-12T23:22:59.574Z,26.119999999999997
2023-03-12T23:25:56.172Z,20.259999999999998
2023-03-12T23:28:53.711Z,21.16
2023-03-12T23:31:49.321Z,21.639999999999997
2023-03-12T23:34:44.855Z,20.860000000000003
2023-03-12T23:37:40.359Z,19.939999999999998
2023-03-12T23:40:37.991Z,19.82
2023-03-12T23:43:33.496Z,20.3
2023-03-12T23:46:30.064Z,24.259999999999998
2023-03-12T23:49:26.616Z,23.82
2023-03-12T23:52:25.174Z,25.1
2023-03-12T23:55:20.761Z,27.3
2023-03-12T23:58:16.282Z,23.439999999999998
